^^
Station Historical Data
Daily Summary for October 8, 2017 Units:  Metric    English   Both
« Previous Day
Next Day »
Daily Weekly Monthly Yearly Custom
  High: Low: Average:
Temperature: 20.2 °C 9.4 °C 12.4 °C
Dew Point: 7.5 °C 1.5 °C 5.6 °C
Humidity: 83% 29% 66%
Wind Speed: 37km/h 13km/h 21.2km/h
Wind Gust: 38.6km/h - -
Wind- - South
Pressure: 1014.4 hPa 1009 hPa -
Precipitation: 0 mm    
Historical Graphs
 
 
Tabular Data for October 8, 2017
Time Temperature Dew Point Pressure Wind Wind Speed Wind Gust Humidity Rainfall Rate (Hourly) solar Conditions
00:02 12.7 °C 7.2 °C 1010 hPa SSW 24.1 km/h 24.1 km/h 69% 0 mm 0.0 W/m2
00:07 12.6 °C 7.3 °C 1010 hPa SSW 17.7 km/h 30.6 km/h 70% 0 mm 0.0 W/m2
00:13 12.6 °C 7.3 °C 1010 hPa SSW 20.9 km/h 24.1 km/h 70% 0 mm 0.0 W/m2
00:18 12.5 °C 7.2 °C 1010 hPa South 13 km/h 20.9 km/h 70% 0 mm 0.0 W/m2
00:23 12.4 °C 7.1 °C 1010 hPa SSW 20.9 km/h 25.7 km/h 70% 0 mm 0.0 W/m2
00:29 12.3 °C 7.2 °C 1010 hPa SSW 17.7 km/h 20.9 km/h 71% 0 mm 0.0 W/m2
00:35 12.3 °C 7.2 °C 1010 hPa SSW 16.3 km/h 25.7 km/h 71% 0 mm 0.0 W/m2
00:40 12.2 °C 7.1 °C 1010 hPa SSW 14.3 km/h 25.7 km/h 71% 0 mm 0.0 W/m2
00:46 12.1 °C 7.2 °C 1009.7 hPa SSW 24.1 km/h 24.1 km/h 72% 0 mm 0.0 W/m2
00:54 12 °C 7.1 °C 1009.7 hPa South 16.3 km/h 25.7 km/h 72% 0 mm 0.0 W/m2
01:03 11.9 °C 7.2 °C 1009.7 hPa SSW 13 km/h 24.1 km/h 73% 0 mm 0.0 W/m2
01:08 11.8 °C 7.1 °C 1009.7 hPa SSW 13 km/h 24.1 km/h 73% 0 mm 0.0 W/m2
01:13 11.7 °C 7 °C 1009.7 hPa SSW 19.5 km/h 24.1 km/h 73% 0 mm 0.0 W/m2
01:23 11.6 °C 7.5 °C 1010 hPa SSW 14.3 km/h 24.1 km/h 76% 0 mm 0.0 W/m2
01:28 11.5 °C 7 °C 1010 hPa SSW 17.7 km/h 25.7 km/h 74% 0 mm 0.0 W/m2
01:33 11.4 °C 6.9 °C 1010 hPa SSW 16.3 km/h 27.4 km/h 74% 0 mm 0.0 W/m2
01:38 11.3 °C 6.8 °C 1010 hPa South 20.9 km/h 27.4 km/h 74% 0 mm 0.0 W/m2
01:48 11.2 °C 6.7 °C 1010 hPa South 20.9 km/h 25.7 km/h 74% 0 mm 0.0 W/m2
01:58 11.1 °C 6.8 °C 1010 hPa SSW 19.5 km/h 25.7 km/h 75% 0 mm 0.0 W/m2
02:09 11 °C 6.9 °C 1010 hPa SSW 22.7 km/h 25.7 km/h 76% 0 mm 0.0 W/m2
02:18 10.9 °C 7 °C 1010 hPa South 17.7 km/h 25.7 km/h 77% 0 mm 0.0 W/m2
02:28 10.7 °C 7 °C 1010 hPa South 19.5 km/h 22.5 km/h 78% 0 mm 0.0 W/m2
02:33 10.7 °C 7 °C 1010 hPa SSW 17.7 km/h 20.9 km/h 78% 0 mm 0.0 W/m2
02:43 10.6 °C 7.1 °C 1010 hPa South 16.3 km/h 20.9 km/h 79% 0 mm 0.0 W/m2
02:53 10.4 °C 7.1 °C 1010 hPa South 16.3 km/h 20.9 km/h 80% 0 mm 0.0 W/m2
02:58 10.4 °C 7.1 °C 1010 hPa South 13 km/h 20.9 km/h 80% 0 mm 0.0 W/m2
03:03 10.3 °C 7.2 °C 1010 hPa SSW 16.3 km/h 22.5 km/h 81% 0 mm 0.0 W/m2
03:13 10.3 °C 7.2 °C 1010 hPa SSW 20.9 km/h 22.5 km/h 81% 0 mm 0.0 W/m2
03:18 10.4 °C 7.3 °C 1010 hPa SSW 24.1 km/h 27.4 km/h 81% 0 mm 0.0 W/m2
03:24 10.4 °C 7.3 °C 1010 hPa South 17.7 km/h 29 km/h 81% 0 mm 0.0 W/m2
03:29 10.3 °C 7 °C 1010 hPa SSW 22.7 km/h 24.1 km/h 80% 0 mm 0.0 W/m2
03:34 10.3 °C 7 °C 1010 hPa South 16.3 km/h 22.5 km/h 80% 0 mm 0.0 W/m2
03:44 10.2 °C 6.9 °C 1010 hPa SSW 17.7 km/h 25.7 km/h 80% 0 mm 0.0 W/m2
03:53 10.1 °C 6.8 °C 1010 hPa South 17.7 km/h 25.7 km/h 80% 0 mm 0.0 W/m2
03:58 10.1 °C 6.8 °C 1010 hPa SSW 17.7 km/h 25.7 km/h 80% 0 mm 0.0 W/m2
04:04 9.9 °C 6.6 °C 1009.7 hPa South 20.9 km/h 25.7 km/h 80% 0 mm 0.0 W/m2
04:09 9.9 °C 6.6 °C 1010 hPa SSW 25.9 km/h 27.4 km/h 80% 0 mm 0.0 W/m2
04:14 9.9 °C 6.6 °C 1010 hPa SSW 20.9 km/h 29 km/h 80% 0 mm 0.0 W/m2
04:19 9.8 °C 6.5 °C 1010 hPa SSW 22.7 km/h 25.7 km/h 80% 0 mm 0.0 W/m2
04:24 9.8 °C 6.3 °C 1010 hPa South 20.9 km/h 27.4 km/h 79% 0 mm 0.0 W/m2
04:44 9.7 °C 6.2 °C 1010 hPa SSW 20.9 km/h 32.2 km/h 79% 0 mm 0.0 W/m2
04:49 9.7 °C 6.2 °C 1010 hPa SSW 20.9 km/h 32.2 km/h 79% 0 mm 0.0 W/m2
04:54 9.7 °C 6.4 °C 1010 hPa South 25.9 km/h 25.9 km/h 80% 0 mm 0.0 W/m2
04:59 9.7 °C 6.4 °C 1010 hPa SSW 24.1 km/h 27.4 km/h 80% 0 mm 0.0 W/m2
05:04 9.7 °C 6.2 °C 1010 hPa South 19.5 km/h 24.1 km/h 79% 0 mm 0.0 W/m2
05:09 9.7 °C 6.2 °C 1010 hPa South 14.3 km/h 24.1 km/h 79% 0 mm 0.0 W/m2
05:14 9.7 °C 6.4 °C 1010 hPa SSW 17.7 km/h 27.4 km/h 80% 0 mm 0.0 W/m2
05:19 9.7 °C 6.2 °C 1010 hPa SSW 14.3 km/h 25.7 km/h 79% 0 mm 0.0 W/m2
05:24 9.7 °C 6.2 °C 1010.4 hPa SSW 24.1 km/h 24.1 km/h 79% 0 mm 0.0 W/m2
05:29 9.7 °C 6.2 °C 1010 hPa South 16.3 km/h 22.5 km/h 79% 0 mm 0.0 W/m2
05:34 9.7 °C 6.2 °C 1010.4 hPa South 19.5 km/h 24.1 km/h 79% 0 mm 0.0 W/m2
05:39 9.8 °C 6.3 °C 1010.4 hPa South 22.7 km/h 29 km/h 79% 0 mm 0.0 W/m2
05:49 9.8 °C 6.3 °C 1010.7 hPa South 13 km/h 25.7 km/h 79% 0 mm 0.0 W/m2
05:54 9.9 °C 6.4 °C 1010.7 hPa SSE 20.9 km/h 24.1 km/h 79% 0 mm 0.0 W/m2
05:59 10 °C 6.5 °C 1010.7 hPa South 19.5 km/h 22.5 km/h 79% 0 mm 0.0 W/m2
06:14 10.1 °C 7.3 °C 1010.7 hPa South 19.5 km/h 25.7 km/h 83% 0 mm 0.0 W/m2
06:19 10 °C 6.7 °C 1011.1 hPa South 22.7 km/h 27.4 km/h 80% 0 mm 0.0 W/m2
06:24 10.1 °C 6.8 °C 1010.7 hPa South 20.9 km/h 27.4 km/h 80% 0 mm 0.0 W/m2
06:36 10.1 °C 6.8 °C 1011.1 hPa SSE 22.7 km/h 32.2 km/h 80% 0 mm 9.0 W/m2
07:19 10.3 °C 6.8 °C 1011.1 hPa SSW 16.3 km/h 25.7 km/h 79% 0 mm 67.0 W/m2
07:35 10.5 °C 6.6 °C 1011.1 hPa South 20.9 km/h 24.1 km/h 77% 0 mm 118.0 W/m2
07:50 10.6 °C 6.4 °C 1011.1 hPa South 17.7 km/h 24.1 km/h 75% 0 mm 281.0 W/m2
08:04 11.1 °C 6.2 °C 1011.1 hPa South 17.7 km/h 20.9 km/h 72% 0 mm 311.0 W/m2
08:13 11.4 °C 6.1 °C 1011.1 hPa South 22.7 km/h 24.1 km/h 70% 0 mm 343.0 W/m2
08:23 11.7 °C 6.2 °C 1011.1 hPa SSE 16.3 km/h 24.1 km/h 69% 0 mm 380.0 W/m2
08:33 11.9 °C 6.2 °C 1011.1 hPa SSW 22.7 km/h 30.6 km/h 68% 0 mm 418.0 W/m2
08:45 12.1 °C 5.9 °C 1011.1 hPa South 17.7 km/h 25.7 km/h 66% 0 mm 448.0 W/m2
09:09 13 °C 6.1 °C 1011.1 hPa SSW 16.3 km/h 25.7 km/h 63% 0 mm 527.0 W/m2
09:34 13.6 °C 6.7 °C 1011.1 hPa South 22.7 km/h 30.6 km/h 63% 0 mm 601.0 W/m2
09:55 13.8 °C 6.4 °C 1011.1 hPa South 20.9 km/h 27.4 km/h 61% 0 mm 661.0 W/m2
10:21 14.7 °C 6.3 °C 1011.4 hPa South 17.7 km/h 29 km/h 57% 0 mm 738.0 W/m2
10:33 14.6 °C 6.2 °C 1011.1 hPa South 27.4 km/h 29 km/h 57% 0 mm 754.0 W/m2
10:45 14.6 °C 5.9 °C 1011.1 hPa SSW 19.5 km/h 30.6 km/h 56% 0 mm 777.0 W/m2
10:56 14.8 °C 5.8 °C 1011.4 hPa SSW 25.9 km/h 32.2 km/h 55% 0 mm 800.0 W/m2
11:08 15 °C 5.2 °C 1011.4 hPa SSW 16.3 km/h 27.4 km/h 52% 0 mm 824.0 W/m2
11:17 15.7 °C 5.3 °C 1011.1 hPa South 22.7 km/h 35.4 km/h 50% 0 mm 842.0 W/m2
11:28 16 °C 5 °C 1011.1 hPa SSW 22.7 km/h 29 km/h 48% 0 mm 860.0 W/m2
11:35 16.1 °C 4.8 °C 1011.1 hPa SSE 16.3 km/h 29 km/h 47% 0 mm 861.0 W/m2
12:31 17.7 °C 4.6 °C 1010.4 hPa South 24.1 km/h 32.2 km/h 42% 0 mm 902.0 W/m2
13:16 18.7 °C 3.7 °C 1010 hPa SSE 33.8 km/h 35.4 km/h 37% 0 mm 884.0 W/m2
13:33 18.8 °C 3.4 °C 1010 hPa South 25.9 km/h 33.8 km/h 36% 0 mm 882.0 W/m2
14:01 19.4 °C 3.5 °C 1009.7 hPa SSW 25.9 km/h 35.4 km/h 35% 0 mm 844.0 W/m2
14:32 19.9 °C 2.7 °C 1009.4 hPa SSW 37 km/h 37 km/h 32% 0 mm 795.0 W/m2
14:48 19.8 °C 1.7 °C 1009.4 hPa South 27.4 km/h 35.4 km/h 30% 0 mm 763.0 W/m2
15:02 20.1 °C 3.7 °C 1009 hPa South 27.4 km/h 30.6 km/h 34% 0 mm 726.0 W/m2
15:14 20.2 °C 2.1 °C 1009 hPa South 33.8 km/h 37 km/h 30% 0 mm 693.0 W/m2
15:20 19.9 °C 1.8 °C 1009 hPa SSW 30.6 km/h 35.4 km/h 30% 0 mm 677.0 W/m2
15:30 20.2 °C 2.1 °C 1009 hPa South 32 km/h 38.6 km/h 30% 0 mm 650.0 W/m2
15:41 20.1 °C 2.4 °C 1009 hPa SSW 22.7 km/h 32.2 km/h 31% 0 mm 622.0 W/m2
15:52 20.1 °C 1.5 °C 1009 hPa SSW 30.6 km/h 35.4 km/h 29% 0 mm 594.0 W/m2
16:58 19.8 °C 2.2 °C 1009 hPa SSW 28.8 km/h 38.6 km/h 31% 0 mm 380.0 W/m2
17:27 19.2 °C 3 °C 1009 hPa SSW 22.7 km/h 32.2 km/h 34% 0 mm 271.0 W/m2
18:43 16.8 °C 4.5 °C 1010 hPa SSW 35.2 km/h 35.4 km/h 44% 0 mm 14.0 W/m2
19:23 15.3 °C 4.6 °C 1010.7 hPa SSW 19.5 km/h 27.4 km/h 49% 0 mm 0.0 W/m2
19:39 14.9 °C 4.6 °C 1011.1 hPa SSW 25.9 km/h 25.9 km/h 50% 0 mm 0.0 W/m2
21:00 12.3 °C 3.5 °C 1012.8 hPa SSE 32 km/h 33.8 km/h 55% 0 mm 0.0 W/m2
21:31 11.6 °C 3.4 °C 1013.1 hPa South 24.1 km/h 33.8 km/h 57% 0 mm 0.0 W/m2
21:48 11.3 °C 3.3 °C 1013.4 hPa SSW 28.8 km/h 35.4 km/h 58% 0 mm 0.0 W/m2
21:55 11.2 °C 3.2 °C 1013.4 hPa South 32 km/h 32.2 km/h 58% 0 mm 0.0 W/m2
22:02 11.1 °C 3.4 °C 1013.4 hPa South 25.9 km/h 25.9 km/h 59% 0 mm 0.0 W/m2
22:14 11 °C 3.1 °C 1013.4 hPa SSE 25.9 km/h 35.4 km/h 58% 0 mm 0.0 W/m2
22:28 10.6 °C 2.9 °C 1013.8 hPa South 25.9 km/h 32.2 km/h 59% 0 mm 0.0 W/m2
22:38 10.4 °C 2.7 °C 1013.8 hPa South 24.1 km/h 25.7 km/h 59% 0 mm 0.0 W/m2
22:48 10.2 °C 2.8 °C 1013.8 hPa South 17.7 km/h 25.7 km/h 60% 0 mm 0.0 W/m2
22:57 10.1 °C 2.9 °C 1013.8 hPa South 17.7 km/h 25.7 km/h 61% 0 mm 0.0 W/m2
23:08 10.1 °C 2.7 °C 1014.1 hPa South 17.7 km/h 30.6 km/h 60% 0 mm 0.0 W/m2
23:18 9.9 °C 2.7 °C 1014.1 hPa South 20.9 km/h 33.8 km/h 61% 0 mm 0.0 W/m2
23:27 9.8 °C 2.6 °C 1014.4 hPa South 24.1 km/h 27.4 km/h 61% 0 mm 0.0 W/m2
23:38 9.7 °C 2.5 °C 1014.4 hPa South 20.9 km/h 32.2 km/h 61% 0 mm 0.0 W/m2
23:58 9.4 °C 2.7 °C 1014.1 hPa South 17.7 km/h 32.2 km/h 63% 0 mm 0.0 W/m2
Canyon Roadhouse, Fishriver Canyon, Namibia
Compliments of Weather Underground - 2.25 mb